West Hurley, NY (12491)

1:11 AM EST on February 13, 2016 (GMT -0500)
Clover St. | | Change Station
CLOSE
Current Station
Personal Weather Station
Location: West Hurley, NY
Elevation: 627 ft
Nearby Weather Stations
Active Advisory: Wind Chill Warning

Elev 627 ft 42.00 °N, 74.10 °W | Updated 3 minutes ago

Overcast
Overcast
15.1 °F
Feels Like 15 °F
N
0.0
Wind Variable Wind from West

Today
High -- | Low -- °F
--% Chance of Precip.
Yesterday
High -- | Low -- °F
Precip. -- in
Pressure 29.88 in
Visibility 10.0 miles
Clouds Overcast 6500 ft
Windchill 15 °F
Dew Point 12 °F
Humidity 86%
Rainfall 0.00 in
Snow Depth Not available.
6:55 AM 5:26 PM
Waxing Crescent, 27% visible
METAR KPOU 130553Z AUTO 23008KT 10SM OVC065 M06/M12 A2988 RMK AO2 SLP116 T10561122 11044 21061 58015
Pressure 29.88 in
Visibility 10.0 miles
Clouds Overcast 6500 ft
Windchill 15 °F
Dew Point 12 °F
Humidity 86%
Rainfall 0.00 in
Snow Depth Not available.
6:55 AM 5:26 PM
Waxing Crescent, 27% visible
METAR KPOU 130553Z AUTO 23008KT 10SM OVC065 M06/M12 A2988 RMK AO2 SLP116 T10561122 11044 21061 58015

10-Day Weather Forecast

Almanac

Astronomy

Feb. 13, 2016 Rise Set
Actual Time
Civil Twilight
Nautical Twilight
Astronomical Twilight
Moon
Length of Visible Light
Length of Day
Tomorrow will be .
, % of the Moon is Illuminated

Today's Extremes

State Highs State Lows

Community

WunderPhotos

Upload Photos

1,892,513 photos uploaded!

WunderBlog® & News

Nearby

Air Quality

  Air Quality AQ Index Pollutant
Not available.

Snow Depth

Station Depth Elevation

Earthquake Activity

City Distance Mag. Time & Date
Minimum magnitude displayed is 2.5.

Coastal Water Temperatures

Place Temperature

Stations

Nearby Weather Stations

Station Location Temp. Windchill Dew Point Humidity Wind Precip. Elev Updated Type
                   

Watches & Warnings

Wind Chill Warning
Issued: 3:32 PM EST Feb. 12, 2016 – National Weather Service

... Wind chill warning remains in effect from 1 PM Saturday to
1 PM EST Sunday...

* locations... Mohawk Valley... greater capital region... Lake
George Saratoga region... Mid Hudson valley... Taconics...
Berkshires and Litchfield Hills.

* Hazard types... dangerous to potentially life threatening wind
chills.

* Wind chill readings... as low as 25 below to 45 below.

* Timing... Saturday afternoon through Sunday afternoon.

* Impacts... wind chills will reach dangerous to potentially life
threatening levels. Frigid temperatures have the potential to
result in frozen pipes... frostbite and hypothermia in a short
amount of time.

* Winds... northwest 15 to 25 mph with gusts up to 35 mph.

* Temperatures... 5 below to 20 below by Saturday night.

Precautionary/preparedness actions...

A wind chill warning means the combination of very cold air and
strong winds will create dangerously low wind chill values. This
will result in frost bite and lead to hypothermia or death if
precautions are not taken.